Aérodrome :
LOGIN :

S'inscrire | Disclaimer

   EN    FR    IT 

 










Légende :    VFR   VFR Marginal   IFR   IFR Intensif   IFR Très Intensif
Visi : 
Plafond : 
>= 8 km
>= 3000ft
5 à 8 km
1000 à 3000 ft
1500m à 5 km
500 à 1000 ft
800 à 1500m
200 à 500 ft
< 800m
< 200 ft
Symboles :   Orages  Brouillard  Fortes neiges  Fortes précipitations  Vent > 20 kt
SIGMETs :   Divers  Orages  Givrage  Turbulence  Onde Orograph.  Cendres Volcan.







- Altitude de l'aérodrome : 584 ft
- Voir les cartes d'approche


LFPV - Villacoublay Vélizy

DERNIER METAR :
  • 280030Z AUTO 24003KT CAVOK 04/M01 Q1017 BECMG BKN014

METARs EXPIRÉS :
  • 280000Z AUTO 25002KT CAVOK 04/M02 Q1017 NOSIG
  • 272330Z AUTO 24002KT CAVOK 04/M02 Q1018 NOSIG
  • 272300Z AUTO 28003KT CAVOK 04/M02 Q1018 NOSIG
  • 272230Z AUTO 28004KT CAVOK 04/M02 Q1018 NOSIG
  • 272200Z AUTO 31003KT CAVOK 05/M03 Q1018 NOSIG
  • 272130Z AUTO 34003KT CAVOK 05/M03 Q1018 NOSIG

TAF TAF LFPV
Valide du 27 à 21h jusqu'au 28 à 21h UTC


272000Z 2721/2821 33005KT CAVOK
BECMG 2802/2804 26005KT BKN014
TEMPO 2804/2810 -RA BKN006
BECMG 2810/2812 33005KT BKN025
TEMPO 2812/2819 5000 -SHRA BKN030TCU
Pas de NOTAMs connus pour ce terrain.



MET'MAP, la Météo Aéronautique d'un coup d'oeil ! - Copyright ORBIFLY Décembre 2007 - Disclaimer

ORBIFLY MET'MAP TEAM :

Programmation & Développement : Alexandra Zaïnal
Conception & Développement : Baudouin d'Aumeries
Co-Programmation & Développement : Marc-Olivier Méhu
Soutien technique & logistique : Manuel Goepfert

Contact : metmap@orbifly.com




SOURCES & CREDITS :

   NOAA